Parkston, South Dakota
Current Conditions -  °F | °C
As of 10:32 AM on Thursday 30 Oct 2014 (Local Time) from KMHE Reporting Station
Overcast Overcast  
Wind Chill: 38°   Ceiling: 1500
Heat Index: 46°   Visibility: 10mi
Dew Point: 39°   Wind: 21mph
Humidity: 76%   Direction: 340°NNW
Pressure: 30.16"   Gusts: 25mph
Location:  43.4°N, 97.98°W
Report Text: KMHE 301532Z AUTO 34018G22KT 10SM OVC015 08/04 A3016 RMK AO2 T00780039
Loading
Personal Weather Stations






























Interactive Weather Map
Tropical Storm Tracking
New forecast layout! Learn more

10-Day Weather Forecast

Advertisements
Track Severe Weather on mobile